sensor_id;sensor_type;location;lat;lon;timestamp;pressure;altitude;pressure_sealevel;temperature;humidity
23643;BME280;11998;55.788;37.572;2023-05-09T00:00:02;100201.03;;;91.03;1.75
23643;BME280;11998;55.788;37.572;2023-05-09T00:01:13;100195.41;;;91.47;1.54
23643;BME280;11998;55.788;37.572;2023-05-09T00:02:14;100199.00;;;90.98;1.86
23643;BME280;11998;55.788;37.572;2023-05-09T00:03:14;100196.44;;;91.15;1.78
23643;BME280;11998;55.788;37.572;2023-05-09T00:04:15;100199.38;;;91.28;1.64
23643;BME280;11998;55.788;37.572;2023-05-09T00:05:15;100193.66;;;91.04;1.69
23643;BME280;11998;55.788;37.572;2023-05-09T00:06:16;100197.41;;;91.31;1.64
23643;BME280;11998;55.788;37.572;2023-05-09T00:07:19;100192.53;;;90.41;1.89
23643;BME280;11998;55.788;37.572;2023-05-09T00:08:20;100192.94;;;90.31;1.90
23643;BME280;11998;55.788;37.572;2023-05-09T00:09:21;100190.00;;;90.84;1.81
23643;BME280;11998;55.788;37.572;2023-05-09T00:10:22;100200.41;;;90.83;1.64
23643;BME280;11998;55.788;37.572;2023-05-09T00:11:22;100194.88;;;90.61;1.96
23643;BME280;11998;55.788;37.572;2023-05-09T00:12:23;100192.50;;;90.94;1.55
23643;BME280;11998;55.788;37.572;2023-05-09T00:13:24;100191.59;;;91.46;1.76
23643;BME280;11998;55.788;37.572;2023-05-09T00:14:25;100205.31;;;91.55;1.67
23643;BME280;11998;55.788;37.572;2023-05-09T00:15:26;100200.44;;;91.52;1.50
23643;BME280;11998;55.788;37.572;2023-05-09T00:16:28;100198.31;;;90.65;1.95
23643;BME280;11998;55.788;37.572;2023-05-09T00:17:32;100197.69;;;91.06;1.93
23643;BME280;11998;55.788;37.572;2023-05-09T00:18:32;100195.44;;;90.59;1.77
23643;BME280;11998;55.788;37.572;2023-05-09T00:19:35;100196.38;;;90.09;1.73
23643;BME280;11998;55.788;37.572;2023-05-09T00:20:37;100201.03;;;90.23;1.69
23643;BME280;11998;55.788;37.572;2023-05-09T00:21:40;100201.78;;;90.82;1.77
23643;BME280;11998;55.788;37.572;2023-05-09T00:22:41;100196.69;;;90.77;1.83
23643;BME280;11998;55.788;37.572;2023-05-09T00:23:41;100198.84;;;90.90;1.76
23643;BME280;11998;55.788;37.572;2023-05-09T00:24:42;100198.06;;;90.63;1.61
23643;BME280;11998;55.788;37.572;2023-05-09T00:25:43;100203.13;;;90.81;1.79
23643;BME280;11998;55.788;37.572;2023-05-09T00:26:43;100200.13;;;90.68;1.62
23643;BME280;11998;55.788;37.572;2023-05-09T00:27:44;100198.03;;;91.16;1.55
23643;BME280;11998;55.788;37.572;2023-05-09T00:28:44;100207.84;;;91.03;1.76
23643;BME280;11998;55.788;37.572;2023-05-09T00:29:45;100193.00;;;90.98;1.66
23643;BME280;11998;55.788;37.572;2023-05-09T00:30:46;100201.72;;;91.09;1.64
23643;BME280;11998;55.788;37.572;2023-05-09T00:31:48;100201.16;;;91.10;1.75
23643;BME280;11998;55.788;37.572;2023-05-09T00:32:49;100205.41;;;91.15;1.91
23643;BME280;11998;55.788;37.572;2023-05-09T00:33:50;100204.78;;;91.30;1.69
23643;BME280;11998;55.788;37.572;2023-05-09T00:34:51;100205.16;;;91.26;1.64
23643;BME280;11998;55.788;37.572;2023-05-09T00:35:54;100207.53;;;91.41;1.71
23643;BME280;11998;55.788;37.572;2023-05-09T00:36:54;100205.03;;;91.32;1.72
23643;BME280;11998;55.788;37.572;2023-05-09T00:37:55;100204.03;;;91.16;1.60
23643;BME280;11998;55.788;37.572;2023-05-09T00:38:56;100207.19;;;91.31;1.50
23643;BME280;11998;55.788;37.572;2023-05-09T00:39:56;100201.53;;;91.07;1.60
23643;BME280;11998;55.788;37.572;2023-05-09T00:40:57;100205.63;;;91.17;1.75
23643;BME280;11998;55.788;37.572;2023-05-09T00:41:58;100201.75;;;90.69;1.77
23643;BME280;11998;55.788;37.572;2023-05-09T00:42:59;100202.75;;;91.11;1.78
23643;BME280;11998;55.788;37.572;2023-05-09T00:43:59;100199.81;;;90.98;1.77
23643;BME280;11998;55.788;37.572;2023-05-09T00:45:02;100201.94;;;91.24;1.81
23643;BME280;11998;55.788;37.572;2023-05-09T00:46:03;100198.03;;;90.37;1.92
23643;BME280;11998;55.788;37.572;2023-05-09T00:47:05;100206.13;;;90.81;1.81
23643;BME280;11998;55.788;37.572;2023-05-09T00:48:06;100200.84;;;90.61;1.88
23643;BME280;11998;55.788;37.572;2023-05-09T00:49:07;100211.66;;;90.64;1.84
23643;BME280;11998;55.788;37.572;2023-05-09T00:50:08;100207.28;;;90.78;1.73
23643;BME280;11998;55.788;37.572;2023-05-09T00:51:08;100206.59;;;90.99;1.67
23643;BME280;11998;55.788;37.572;2023-05-09T00:52:11;100207.03;;;91.03;1.51
23643;BME280;11998;55.788;37.572;2023-05-09T00:53:12;100195.78;;;90.82;1.79
23643;BME280;11998;55.788;37.572;2023-05-09T00:54:12;100214.00;;;90.84;1.76
23643;BME280;11998;55.788;37.572;2023-05-09T00:55:14;100203.13;;;91.08;1.70
23643;BME280;11998;55.788;37.572;2023-05-09T00:56:15;100216.97;;;90.71;1.75
23643;BME280;11998;55.788;37.572;2023-05-09T00:57:16;100213.63;;;91.14;1.89
23643;BME280;11998;55.788;37.572;2023-05-09T00:58:17;100207.03;;;91.03;1.73
23643;BME280;11998;55.788;37.572;2023-05-09T00:59:19;100210.19;;;90.71;1.79
23643;BME280;11998;55.788;37.572;2023-05-09T01:00:20;100210.03;;;90.89;1.54
23643;BME280;11998;55.788;37.572;2023-05-09T01:01:21;100219.03;;;90.89;1.75
23643;BME280;11998;55.788;37.572;2023-05-09T01:02:22;100208.00;;;90.84;1.62
23643;BME280;11998;55.788;37.572;2023-05-09T01:03:23;100204.78;;;90.96;1.70
23643;BME280;11998;55.788;37.572;2023-05-09T01:04:24;100211.44;;;90.62;1.76
23643;BME280;11998;55.788;37.572;2023-05-09T01:05:29;100206.69;;;90.53;1.79
23643;BME280;11998;55.788;37.572;2023-05-09T01:06:47;100212.50;;;90.78;1.81
23643;BME280;11998;55.788;37.572;2023-05-09T01:08:06;100203.38;;;90.70;1.78
23643;BME280;11998;55.788;37.572;2023-05-09T01:11:38;100209.91;;;91.08;1.77
23643;BME280;11998;55.788;37.572;2023-05-09T01:12:50;100215.59;;;90.85;1.78
23643;BME280;11998;55.788;37.572;2023-05-09T01:13:59;100211.00;;;90.98;1.68
23643;BME280;11998;55.788;37.572;2023-05-09T01:15:23;100205.00;;;90.98;1.75
23643;BME280;11998;55.788;37.572;2023-05-09T01:16:37;100211.28;;;90.94;1.72
23643;BME280;11998;55.788;37.572;2023-05-09T01:17:54;100207.06;;;90.50;1.71
23643;BME280;11998;55.788;37.572;2023-05-09T01:20:38;100201.66;;;90.03;1.83
23643;BME280;11998;55.788;37.572;2023-05-09T01:21:46;100203.38;;;89.79;1.83
23643;BME280;11998;55.788;37.572;2023-05-09T01:22:59;100204.81;;;89.92;1.64
23643;BME280;11998;55.788;37.572;2023-05-09T01:24:30;100213.28;;;90.39;1.88
23643;BME280;11998;55.788;37.572;2023-05-09T01:29:46;100201.88;;;89.73;1.90
23643;BME280;11998;55.788;37.572;2023-05-09T01:30:50;100195.38;;;89.37;1.87
23643;BME280;11998;55.788;37.572;2023-05-09T01:31:54;100201.50;;;89.26;2.02
23643;BME280;11998;55.788;37.572;2023-05-09T01:32:59;100192.91;;;89.54;1.98
23643;BME280;11998;55.788;37.572;2023-05-09T01:34:01;100190.09;;;89.05;1.90
23643;BME280;11998;55.788;37.572;2023-05-09T01:35:03;100195.25;;;89.05;1.91
23643;BME280;11998;55.788;37.572;2023-05-09T01:36:10;100195.31;;;88.99;1.90
23643;BME280;11998;55.788;37.572;2023-05-09T01:37:14;100206.09;;;89.83;1.79
23643;BME280;11998;55.788;37.572;2023-05-09T01:38:19;100200.16;;;89.77;1.94
23643;BME280;11998;55.788;37.572;2023-05-09T01:39:23;100209.47;;;90.51;1.73
23643;BME280;11998;55.788;37.572;2023-05-09T01:40:27;100208.03;;;89.94;1.79
23643;BME280;11998;55.788;37.572;2023-05-09T01:41:33;100200.53;;;90.19;1.67
23643;BME280;11998;55.788;37.572;2023-05-09T01:42:42;100210.50;;;90.41;1.85
23643;BME280;11998;55.788;37.572;2023-05-09T01:43:45;100204.28;;;90.65;1.62
23643;BME280;11998;55.788;37.572;2023-05-09T01:44:47;100207.50;;;90.67;1.76
23643;BME280;11998;55.788;37.572;2023-05-09T01:45:50;100203.53;;;90.19;1.77
23643;BME280;11998;55.788;37.572;2023-05-09T01:46:52;100210.19;;;90.12;1.72
23643;BME280;11998;55.788;37.572;2023-05-09T01:47:55;100206.19;;;89.40;1.86
23643;BME280;11998;55.788;37.572;2023-05-09T01:48:57;100202.72;;;88.74;2.01
23643;BME280;11998;55.788;37.572;2023-05-09T01:50:00;100201.47;;;88.88;2.05
23643;BME280;11998;55.788;37.572;2023-05-09T01:51:03;100215.25;;;89.53;1.94
23643;BME280;11998;55.788;37.572;2023-05-09T01:52:13;100203.50;;;89.74;2.01
23643;BME280;11998;55.788;37.572;2023-05-09T01:53:16;100208.09;;;90.07;1.80
23643;BME280;11998;55.788;37.572;2023-05-09T01:54:17;100207.22;;;90.12;1.94
23643;BME280;11998;55.788;37.572;2023-05-09T01:55:20;100207.66;;;90.16;1.87
23643;BME280;11998;55.788;37.572;2023-05-09T01:56:25;100211.66;;;90.51;1.93
23643;BME280;11998;55.788;37.572;2023-05-09T01:57:28;100199.09;;;90.52;1.92
23643;BME280;11998;55.788;37.572;2023-05-09T01:58:32;100215.84;;;90.61;1.48
23643;BME280;11998;55.788;37.572;2023-05-09T01:59:33;100205.66;;;90.38;1.63
23643;BME280;11998;55.788;37.572;2023-05-09T02:00:35;100211.50;;;90.30;1.74
23643;BME280;11998;55.788;37.572;2023-05-09T02:01:36;100212.03;;;90.15;1.78
23643;BME280;11998;55.788;37.572;2023-05-09T02:02:37;100211.63;;;90.24;1.74
23643;BME280;11998;55.788;37.572;2023-05-09T02:03:39;100211.03;;;89.94;1.77
23643;BME280;11998;55.788;37.572;2023-05-09T02:04:42;100221.09;;;90.42;2.10
23643;BME280;11998;55.788;37.572;2023-05-09T02:05:44;100217.97;;;90.34;1.87
23643;BME280;11998;55.788;37.572;2023-05-09T02:06:51;100216.69;;;90.29;1.77
23643;BME280;11998;55.788;37.572;2023-05-09T02:07:54;100217.88;;;90.40;1.92
23643;BME280;11998;55.788;37.572;2023-05-09T02:08:59;100213.50;;;90.54;1.81
23643;BME280;11998;55.788;37.572;2023-05-09T02:10:01;100206.13;;;90.55;1.82
23643;BME280;11998;55.788;37.572;2023-05-09T02:11:02;100211.41;;;90.22;1.93
23643;BME280;11998;55.788;37.572;2023-05-09T02:12:03;100213.59;;;90.35;1.72
23643;BME280;11998;55.788;37.572;2023-05-09T02:13:04;100225.25;;;90.65;1.84
23643;BME280;11998;55.788;37.572;2023-05-09T02:14:04;100216.97;;;90.71;1.73
23643;BME280;11998;55.788;37.572;2023-05-09T02:15:06;100220.16;;;90.20;1.95
23643;BME280;11998;55.788;37.572;2023-05-09T02:16:08;100213.53;;;90.09;1.95
23643;BME280;11998;55.788;37.572;2023-05-09T02:17:09;100211.88;;;90.40;1.82
23643;BME280;11998;55.788;37.572;2023-05-09T02:18:16;100218.41;;;89.93;1.89
23643;BME280;11998;55.788;37.572;2023-05-09T02:19:16;100220.88;;;90.40;1.92
23643;BME280;11998;55.788;37.572;2023-05-09T02:20:17;100210.72;;;90.43;1.79
23643;BME280;11998;55.788;37.572;2023-05-09T02:21:18;100216.63;;;90.48;1.78
23643;BME280;11998;55.788;37.572;2023-05-09T02:22:19;100214.88;;;90.93;1.87
23643;BME280;11998;55.788;37.572;2023-05-09T02:23:19;100219.25;;;90.39;1.87
23643;BME280;11998;55.788;37.572;2023-05-09T02:24:20;100215.53;;;90.19;1.90
23643;BME280;11998;55.788;37.572;2023-05-09T02:25:21;100211.28;;;89.83;1.82
23643;BME280;11998;55.788;37.572;2023-05-09T02:26:24;100213.94;;;89.67;1.91
23643;BME280;11998;55.788;37.572;2023-05-09T02:27:25;100215.56;;;90.32;1.85
23643;BME280;11998;55.788;37.572;2023-05-09T02:28:27;100219.69;;;90.29;1.85
23643;BME280;11998;55.788;37.572;2023-05-09T02:29:31;100218.06;;;90.28;1.74
23643;BME280;11998;55.788;37.572;2023-05-09T02:30:41;100209.00;;;90.47;1.82
23643;BME280;11998;55.788;37.572;2023-05-09T02:31:45;100217.03;;;90.26;1.71
23643;BME280;11998;55.788;37.572;2023-05-09T02:32:54;100208.81;;;90.13;1.82
23643;BME280;11998;55.788;37.572;2023-05-09T02:33:56;100212.09;;;90.42;1.67
23643;BME280;11998;55.788;37.572;2023-05-09T02:35:00;100213.28;;;90.39;1.79
23643;BME280;11998;55.788;37.572;2023-05-09T02:36:01;100211.31;;;89.96;1.77
23643;BME280;11998;55.788;37.572;2023-05-09T02:37:02;100215.06;;;90.28;1.88
23643;BME280;11998;55.788;37.572;2023-05-09T02:38:04;100214.41;;;90.36;1.72
23643;BME280;11998;55.788;37.572;2023-05-09T02:39:06;100210.75;;;89.78;1.88
23643;BME280;11998;55.788;37.572;2023-05-09T02:40:07;100223.59;;;90.24;1.74
23643;BME280;11998;55.788;37.572;2023-05-09T02:41:15;100219.25;;;90.39;1.67
23643;BME280;11998;55.788;37.572;2023-05-09T02:42:24;100219.53;;;90.09;2.02
23643;BME280;11998;55.788;37.572;2023-05-09T02:43:24;100217.41;;;90.36;1.84
23643;BME280;11998;55.788;37.572;2023-05-09T02:44:25;100212.59;;;90.46;1.61
23643;BME280;11998;55.788;37.572;2023-05-09T02:45:26;100216.81;;;89.92;1.80
23643;BME280;11998;55.788;37.572;2023-05-09T02:46:26;100213.91;;;89.86;1.64
23643;BME280;11998;55.788;37.572;2023-05-09T02:47:27;100217.78;;;90.13;2.02
23643;BME280;11998;55.788;37.572;2023-05-09T02:48:28;100215.53;;;90.19;1.69
23643;BME280;11998;55.788;37.572;2023-05-09T02:49:29;100219.22;;;90.25;1.79
23643;BME280;11998;55.788;37.572;2023-05-09T02:50:31;100221.09;;;90.42;1.90
23643;BME280;11998;55.788;37.572;2023-05-09T02:51:32;100226.84;;;90.40;1.88
23643;BME280;11998;55.788;37.572;2023-05-09T02:52:33;100219.84;;;90.50;1.82
23643;BME280;11998;55.788;37.572;2023-05-09T02:53:33;100222.47;;;90.41;1.83
23643;BME280;11998;55.788;37.572;2023-05-09T02:54:34;100223.66;;;90.64;1.85
23643;BME280;11998;55.788;37.572;2023-05-09T02:55:35;100224.81;;;90.61;1.83
23643;BME280;11998;55.788;37.572;2023-05-09T02:56:35;100222.97;;;90.58;1.70
23643;BME280;11998;55.788;37.572;2023-05-09T02:57:36;100225.19;;;90.57;1.77
23643;BME280;11998;55.788;37.572;2023-05-09T02:58:37;100223.22;;;90.60;1.71
23643;BME280;11998;55.788;37.572;2023-05-09T02:59:38;100222.50;;;90.67;1.79
23643;BME280;11998;55.788;37.572;2023-05-09T03:00:38;100233.47;;;90.78;1.78
23643;BME280;11998;55.788;37.572;2023-05-09T03:01:39;100224.81;;;90.61;1.70
23643;BME280;11998;55.788;37.572;2023-05-09T03:02:40;100223.19;;;90.86;1.71
23643;BME280;11998;55.788;37.572;2023-05-09T03:03:40;100227.78;;;90.74;1.68
23643;BME280;11998;55.788;37.572;2023-05-09T03:04:41;100236.09;;;90.95;1.62
23643;BME280;11998;55.788;37.572;2023-05-09T03:05:42;100228.47;;;90.94;1.95
23643;BME280;11998;55.788;37.572;2023-05-09T03:06:43;100232.41;;;91.02;1.87
23643;BME280;11998;55.788;37.572;2023-05-09T03:07:43;100230.75;;;91.14;1.59
23643;BME280;11998;55.788;37.572;2023-05-09T03:08:44;100237.69;;;91.22;1.83
23643;BME280;11998;55.788;37.572;2023-05-09T03:09:44;100246.22;;;91.18;1.69
23643;BME280;11998;55.788;37.572;2023-05-09T03:10:45;100240.47;;;90.94;1.86
23643;BME280;11998;55.788;37.572;2023-05-09T03:11:46;100235.28;;;90.94;1.86
23643;BME280;11998;55.788;37.572;2023-05-09T03:12:47;100238.41;;;90.75;1.89
23643;BME280;11998;55.788;37.572;2023-05-09T03:13:48;100240.03;;;90.89;1.89
23643;BME280;11998;55.788;37.572;2023-05-09T03:14:49;100240.97;;;90.98;1.73
23643;BME280;11998;55.788;37.572;2023-05-09T03:15:49;100233.09;;;90.81;1.70
23643;BME280;11998;55.788;37.572;2023-05-09T03:16:50;100241.03;;;91.05;1.72
23643;BME280;11998;55.788;37.572;2023-05-09T03:17:51;100237.72;;;91.09;1.72
23643;BME280;11998;55.788;37.572;2023-05-09T03:18:52;100242.91;;;91.08;2.00
23643;BME280;11998;55.788;37.572;2023-05-09T03:19:52;100241.16;;;91.13;1.70
23643;BME280;11998;55.788;37.572;2023-05-09T03:20:53;100242.56;;;90.99;1.81
23643;BME280;11998;55.788;37.572;2023-05-09T03:21:54;100249.22;;;91.18;1.75
23643;BME280;11998;55.788;37.572;2023-05-09T03:22:54;100250.03;;;91.18;1.99
23643;BME280;11998;55.788;37.572;2023-05-09T03:23:55;100248.53;;;91.25;1.82
23643;BME280;11998;55.788;37.572;2023-05-09T03:24:56;100253.13;;;91.13;1.81
23643;BME280;11998;55.788;37.572;2023-05-09T03:25:56;100249.19;;;91.31;1.84
23643;BME280;11998;55.788;37.572;2023-05-09T03:26:57;100253.47;;;91.36;1.80
23643;BME280;11998;55.788;37.572;2023-05-09T03:28:01;100243.69;;;90.69;1.92
23643;BME280;11998;55.788;37.572;2023-05-09T03:29:02;100251.22;;;91.50;1.77
23643;BME280;11998;55.788;37.572;2023-05-09T03:30:03;100248.91;;;91.56;1.80
23643;BME280;11998;55.788;37.572;2023-05-09T03:31:04;100255.81;;;91.03;1.95
23643;BME280;11998;55.788;37.572;2023-05-09T03:32:05;100246.47;;;90.67;2.09
23643;BME280;11998;55.788;37.572;2023-05-09T03:33:06;100246.81;;;90.90;1.90
23643;BME280;11998;55.788;37.572;2023-05-09T03:34:07;100260.09;;;90.95;1.97
23643;BME280;11998;55.788;37.572;2023-05-09T03:35:12;100249.72;;;90.82;1.95
23643;BME280;11998;55.788;37.572;2023-05-09T03:36:13;100247.38;;;90.49;1.84
23643;BME280;11998;55.788;37.572;2023-05-09T03:37:13;100243.03;;;90.76;1.92
23643;BME280;11998;55.788;37.572;2023-05-09T03:38:14;100244.19;;;90.86;1.90
23643;BME280;11998;55.788;37.572;2023-05-09T03:39:15;100241.63;;;90.90;1.84
23643;BME280;11998;55.788;37.572;2023-05-09T03:40:16;100254.72;;;91.40;1.96
23643;BME280;11998;55.788;37.572;2023-05-09T03:41:19;100259.31;;;91.55;1.78
23643;BME280;11998;55.788;37.572;2023-05-09T03:42:20;100253.66;;;91.85;1.70
23643;BME280;11998;55.788;37.572;2023-05-09T03:43:27;100253.16;;;92.15;1.87
23643;BME280;11998;55.788;37.572;2023-05-09T03:44:28;100258.16;;;92.41;1.70
23643;BME280;11998;55.788;37.572;2023-05-09T03:45:28;100261.94;;;92.63;1.57
23643;BME280;11998;55.788;37.572;2023-05-09T03:46:29;100265.13;;;92.86;1.58
23643;BME280;11998;55.788;37.572;2023-05-09T03:47:30;100266.34;;;93.34;1.57
23643;BME280;11998;55.788;37.572;2023-05-09T03:48:31;100266.41;;;93.49;1.79
23643;BME280;11998;55.788;37.572;2023-05-09T03:49:31;100269.66;;;93.66;1.79
23643;BME280;11998;55.788;37.572;2023-05-09T03:50:32;100270.75;;;94.00;1.66
23643;BME280;11998;55.788;37.572;2023-05-09T03:51:32;100264.47;;;93.75;1.49
23643;BME280;11998;55.788;37.572;2023-05-09T03:52:33;100271.75;;;94.40;1.70
23643;BME280;11998;55.788;37.572;2023-05-09T03:53:34;100276.03;;;95.08;1.50
23643;BME280;11998;55.788;37.572;2023-05-09T03:54:34;100273.94;;;95.91;1.33
23643;BME280;11998;55.788;37.572;2023-05-09T03:55:35;100283.25;;;97.05;1.58
23643;BME280;11998;55.788;37.572;2023-05-09T03:56:35;100283.59;;;97.09;1.26
23643;BME280;11998;55.788;37.572;2023-05-09T03:57:36;100291.63;;;97.95;1.11
23643;BME280;11998;55.788;37.572;2023-05-09T03:58:37;100280.06;;;98.20;1.18
23643;BME280;11998;55.788;37.572;2023-05-09T03:59:38;100283.22;;;98.12;1.20
23643;BME280;11998;55.788;37.572;2023-05-09T04:00:39;100290.97;;;98.72;1.29
23643;BME280;11998;55.788;37.572;2023-05-09T04:01:40;100282.69;;;98.91;1.04
23643;BME280;11998;55.788;37.572;2023-05-09T04:02:41;100283.69;;;99.54;1.05
23643;BME280;11998;55.788;37.572;2023-05-09T04:03:42;100285.56;;;100.21;0.83
23643;BME280;11998;55.788;37.572;2023-05-09T04:04:43;100288.84;;;100.89;0.83
23643;BME280;11998;55.788;37.572;2023-05-09T04:05:44;100281.19;;;101.33;1.06
23643;BME280;11998;55.788;37.572;2023-05-09T04:06:45;100273.50;;;101.32;0.87
23643;BME280;11998;55.788;37.572;2023-05-09T04:07:46;100284.13;;;101.55;1.07
23643;BME280;11998;55.788;37.572;2023-05-09T04:08:46;100277.25;;;101.89;1.12
23643;BME280;11998;55.788;37.572;2023-05-09T04:09:47;100283.19;;;102.48;0.62
23643;BME280;11998;55.788;37.572;2023-05-09T04:10:49;100268.50;;;103.21;0.91
23643;BME280;11998;55.788;37.572;2023-05-09T04:11:50;100278.84;;;103.55;0.73
23643;BME280;11998;55.788;37.572;2023-05-09T04:12:51;100271.94;;;104.09;0.68
23643;BME280;11998;55.788;37.572;2023-05-09T04:13:51;100271.75;;;104.48;0.84
23643;BME280;11998;55.788;37.572;2023-05-09T04:14:55;100270.22;;;105.40;0.50
23643;BME280;11998;55.788;37.572;2023-05-09T04:15:56;100262.78;;;105.61;0.50
23643;BME280;11998;55.788;37.572;2023-05-09T04:16:56;100257.06;;;105.69;0.90
23643;BME280;11998;55.788;37.572;2023-05-09T04:17:57;100254.28;;;106.09;0.35
23643;BME280;11998;55.788;37.572;2023-05-09T04:18:58;100255.59;;;106.75;0.92
23643;BME280;11998;55.788;37.572;2023-05-09T04:19:59;100253.47;;;107.17;0.73
23643;BME280;11998;55.788;37.572;2023-05-09T04:21:00;100245.53;;;107.10;0.55
23643;BME280;11998;55.788;37.572;2023-05-09T04:22:01;100249.56;;;107.96;0.66
23643;BME280;11998;55.788;37.572;2023-05-09T04:23:01;100242.56;;;107.94;0.35
23643;BME280;11998;55.788;37.572;2023-05-09T04:24:02;100245.25;;;107.84;0.57
23643;BME280;11998;55.788;37.572;2023-05-09T04:25:03;100234.72;;;107.69;0.57
23643;BME280;11998;55.788;37.572;2023-05-09T04:26:04;100236.03;;;108.05;0.54
23643;BME280;11998;55.788;37.572;2023-05-09T04:27:07;100236.44;;;107.74;0.55
23643;BME280;11998;55.788;37.572;2023-05-09T04:28:08;100239.47;;;108.38;0.56
23643;BME280;11998;55.788;37.572;2023-05-09T04:29:08;100233.88;;;108.32;0.53
23643;BME280;11998;55.788;37.572;2023-05-09T04:30:10;100237.91;;;108.15;0.52
23643;BME280;11998;55.788;37.572;2023-05-09T04:31:11;100235.75;;;108.41;0.62
23643;BME280;11998;55.788;37.572;2023-05-09T04:32:13;100232.81;;;106.44;1.01
23643;BME280;11998;55.788;37.572;2023-05-09T04:33:14;100231.69;;;107.29;0.76
23643;BME280;11998;55.788;37.572;2023-05-09T04:34:16;100235.78;;;107.97;0.63
23643;BME280;11998;55.788;37.572;2023-05-09T04:35:16;100236.63;;;107.78;0.71
23643;BME280;11998;55.788;37.572;2023-05-09T04:36:17;100242.66;;;109.13;0.30
23643;BME280;11998;55.788;37.572;2023-05-09T04:37:18;100245.16;;;109.45;0.21
23643;BME280;11998;55.788;37.572;2023-05-09T04:38:22;100241.06;;;109.64;0.73
23643;BME280;11998;55.788;37.572;2023-05-09T04:39:23;100231.69;;;109.06;0.46
23643;BME280;11998;55.788;37.572;2023-05-09T04:40:23;100241.31;;;109.72;0.38
23643;BME280;11998;55.788;37.572;2023-05-09T04:41:24;100227.31;;;109.39;0.44
23643;BME280;11998;55.788;37.572;2023-05-09T04:42:25;100237.06;;;109.86;0.52
23643;BME280;11998;55.788;37.572;2023-05-09T04:43:25;100232.69;;;110.25;0.04
23643;BME280;11998;55.788;37.572;2023-05-09T04:44:27;100213.22;;;108.11;0.55
23643;BME280;11998;55.788;37.572;2023-05-09T04:45:28;100217.91;;;107.10;0.69
23643;BME280;11998;55.788;37.572;2023-05-09T04:46:29;100226.97;;;109.03;0.47
23643;BME280;11998;55.788;37.572;2023-05-09T04:47:29;100224.88;;;108.38;0.47
23643;BME280;11998;55.788;37.572;2023-05-09T04:48:30;100217.75;;;106.86;0.52
23643;BME280;11998;55.788;37.572;2023-05-09T04:49:31;100218.53;;;107.07;0.84
23643;BME280;11998;55.788;37.572;2023-05-09T04:50:31;100212.59;;;107.31;0.59
23643;BME280;11998;55.788;37.572;2023-05-09T04:51:34;100207.78;;;106.68;0.62
23643;BME280;11998;55.788;37.572;2023-05-09T04:52:35;100203.50;;;104.44;0.48
23643;BME280;11998;55.788;37.572;2023-05-09T04:53:36;100213.00;;;105.76;0.25
23643;BME280;11998;55.788;37.572;2023-05-09T04:54:36;100223.56;;;107.58;0.39
23643;BME280;11998;55.788;37.572;2023-05-09T04:55:37;100228.94;;;108.69;0.39
23643;BME280;11998;55.788;37.572;2023-05-09T04:56:38;100225.16;;;108.94;0.35
23643;BME280;11998;55.788;37.572;2023-05-09T04:57:38;100229.34;;;109.57;0.35
23643;BME280;11998;55.788;37.572;2023-05-09T04:58:39;100222.75;;;107.77;0.78
23643;BME280;11998;55.788;37.572;2023-05-09T04:59:40;100220.16;;;107.47;0.48
23643;BME280;11998;55.788;37.572;2023-05-09T05:00:41;100229.47;;;109.09;0.49
23643;BME280;11998;55.788;37.572;2023-05-09T05:01:42;100234.38;;;109.44;0.33
23643;BME280;11998;55.788;37.572;2023-05-09T05:02:43;100217.81;;;107.90;0.44
23643;BME280;11998;55.788;37.572;2023-05-09T05:03:43;100221.72;;;107.29;0.54
23643;BME280;11998;55.788;37.572;2023-05-09T05:04:45;100219.97;;;107.43;0.33
23643;BME280;11998;55.788;37.572;2023-05-09T05:05:46;100226.84;;;108.27;0.49
23643;BME280;11998;55.788;37.572;2023-05-09T05:06:46;100230.41;;;108.66;0.58
23643;BME280;11998;55.788;37.572;2023-05-09T05:07:47;100214.06;;;105.83;1.04
23643;BME280;11998;55.788;37.572;2023-05-09T05:08:48;100231.31;;;108.94;0.64
23643;BME280;11998;55.788;37.572;2023-05-09T05:09:48;100228.84;;;109.14;0.30
23643;BME280;11998;55.788;37.572;2023-05-09T05:10:49;100234.13;;;109.36;0.75
23643;BME280;11998;55.788;37.572;2023-05-09T05:11:50;100227.16;;;108.83;0.47
23643;BME280;11998;55.788;37.572;2023-05-09T05:12:51;100227.19;;;109.63;0.35
23643;BME280;11998;55.788;37.572;2023-05-09T05:13:52;100216.19;;;107.45;0.40
23643;BME280;11998;55.788;37.572;2023-05-09T05:14:52;100208.22;;;104.76;0.89
23643;BME280;11998;55.788;37.572;2023-05-09T05:15:53;100213.59;;;106.97;0.73
23643;BME280;11998;55.788;37.572;2023-05-09T05:16:54;100223.72;;;108.49;0.39
23643;BME280;11998;55.788;37.572;2023-05-09T05:17:55;100223.63;;;108.01;0.45
23643;BME280;11998;55.788;37.572;2023-05-09T05:18:55;100216.66;;;107.37;0.53
23643;BME280;11998;55.788;37.572;2023-05-09T05:19:57;100227.97;;;108.38;0.45
23643;BME280;11998;55.788;37.572;2023-05-09T05:20:57;100228.88;;;108.43;0.43
23643;BME280;11998;55.788;37.572;2023-05-09T05:21:58;100212.41;;;104.99;0.45
23643;BME280;11998;55.788;37.572;2023-05-09T05:22:58;100202.09;;;103.88;0.75
23643;BME280;11998;55.788;37.572;2023-05-09T05:23:59;100212.63;;;106.20;0.73
23643;BME280;11998;55.788;37.572;2023-05-09T05:25:00;100215.78;;;103.87;0.89
23643;BME280;11998;55.788;37.572;2023-05-09T05:26:02;100210.06;;;104.52;0.90
23643;BME280;11998;55.788;37.572;2023-05-09T05:27:03;100214.63;;;105.62;0.43
23643;BME280;11998;55.788;37.572;2023-05-09T05:28:04;100223.94;;;107.46;0.50
23643;BME280;11998;55.788;37.572;2023-05-09T05:29:05;100233.47;;;107.76;0.67
23643;BME280;11998;55.788;37.572;2023-05-09T05:30:06;100224.19;;;106.94;0.33
23643;BME280;11998;55.788;37.572;2023-05-09T05:31:07;100216.06;;;107.21;0.49